createdAt,value
2019-02-28T00:04:57.878Z,101004.11
2019-02-28T00:07:23.777Z,101008.81
2019-02-28T00:09:49.553Z,101000.27
2019-02-28T00:12:15.348Z,100990.71
2019-02-28T00:14:41.137Z,100981.31
2019-02-28T00:17:09.206Z,100977.08
2019-02-28T00:19:34.721Z,100973.20
2019-02-28T00:22:00.504Z,100973.03
2019-02-28T00:24:27.254Z,100965.14
2019-02-28T00:26:54.063Z,100952.37
2019-02-28T00:29:19.839Z,100958.59
2019-02-28T00:31:49.463Z,100944.52
2019-02-28T00:34:13.462Z,100939.97
2019-02-28T00:36:39.257Z,100937.65
2019-02-28T00:39:05.054Z,100933.29
2019-02-28T00:41:30.931Z,100931.93
2019-02-28T00:43:57.107Z,100937.63
2019-02-28T00:46:24.458Z,100944.51
2019-02-28T00:48:53.006Z,100933.77
2019-02-28T00:51:17.930Z,100928.25
2019-02-28T00:53:43.898Z,100936.44
2019-02-28T00:56:09.678Z,100914.83
2019-02-28T00:58:35.482Z,100917.51
2019-02-28T01:01:01.256Z,100904.77
2019-02-28T01:03:27.617Z,100902.92
2019-02-28T01:05:54.728Z,100892.70
2019-02-28T01:08:22.133Z,100889.18
2019-02-28T01:10:48.223Z,100883.12
2019-02-28T01:13:14.016Z,100894.53
2019-02-28T01:15:44.454Z,100886.00
2019-02-28T01:18:07.490Z,100881.13
2019-02-28T01:20:33.272Z,100877.94
2019-02-28T01:22:59.352Z,100874.60
2019-02-28T01:25:26.748Z,100873.44
2019-02-28T01:27:53.079Z,100867.55
2019-02-28T01:30:20.384Z,100864.52
2019-02-28T01:32:49.726Z,100862.34
2019-02-28T01:35:14.221Z,100859.66
2019-02-28T01:40:53.932Z,100859.68
2019-02-28T01:43:19.722Z,100846.26
2019-02-28T01:45:45.503Z,100834.36
2019-02-28T01:48:11.294Z,100829.66
2019-02-28T01:50:37.145Z,100834.20
2019-02-28T01:53:02.927Z,100832.17
2019-02-28T01:55:29.376Z,100843.03
2019-02-28T02:01:04.718Z,100851.05
2019-02-28T02:03:30.499Z,100850.70
2019-02-28T02:05:56.330Z,100846.66
2019-02-28T02:09:03.814Z,100848.17
2019-02-28T02:11:29.743Z,100862.05
2019-02-28T02:13:55.513Z,100865.23
2019-02-28T02:16:26.781Z,100872.44
2019-02-28T02:18:49.006Z,100863.36
2019-02-28T02:21:56.723Z,100855.70
2019-02-28T02:24:24.385Z,100848.15
2019-02-28T02:26:50.547Z,100843.31
2019-02-28T02:29:37.162Z,100828.88
2019-02-28T02:32:04.058Z,100828.88
2019-02-28T02:34:29.922Z,100823.21
2019-02-28T02:36:55.743Z,100826.55
2019-02-28T02:39:21.537Z,100833.06
2019-02-28T02:41:47.863Z,100833.41
2019-02-28T02:44:14.627Z,100821.19
2019-02-28T02:46:40.544Z,100833.20
2019-02-28T02:49:06.458Z,100834.86
2019-02-28T02:51:32.256Z,100836.51
2019-02-28T02:53:58.282Z,100839.19
2019-02-28T02:56:24.092Z,100835.66
2019-02-28T02:58:49.872Z,100841.35
2019-02-28T03:01:15.723Z,100837.95
2019-02-28T03:03:44.263Z,100831.09
2019-02-28T03:06:13.969Z,100831.92
2019-02-28T03:08:37.445Z,100821.22
2019-02-28T03:11:04.658Z,100816.04
2019-02-28T03:13:30.387Z,100808.47
2019-02-28T03:15:59.256Z,100803.59
2019-02-28T03:18:23.886Z,100792.05
2019-02-28T03:20:49.688Z,100802.53
2019-02-28T03:23:15.482Z,100800.55
2019-02-28T03:25:41.272Z,100786.18
2019-02-28T03:28:07.050Z,100783.95
2019-02-28T03:30:33.789Z,100791.77
2019-02-28T03:33:00.543Z,100795.44
2019-02-28T03:35:26.326Z,100801.77
2019-02-28T03:37:52.116Z,100798.41
2019-02-28T03:40:17.908Z,100796.08
2019-02-28T03:42:43.698Z,100801.25
2019-02-28T03:45:51.146Z,100803.25
2019-02-28T03:48:16.940Z,100798.11
2019-02-28T03:50:42.729Z,100792.55
2019-02-28T03:53:08.518Z,100794.88
2019-02-28T03:55:40.346Z,100790.02
2019-02-28T03:58:05.450Z,100790.48
2019-02-28T04:00:33.911Z,100780.27
2019-02-28T04:02:59.067Z,100792.16
2019-02-28T04:05:28.185Z,100791.95
2019-02-28T04:07:54.703Z,100785.69
2019-02-28T04:10:21.717Z,100793.67
2019-02-28T04:12:48.170Z,100787.03
2019-02-28T04:16:07.410Z,100781.68
2019-02-28T04:18:23.342Z,100782.47
2019-02-28T04:20:49.130Z,100784.66
2019-02-28T04:23:14.912Z,100781.00
2019-02-28T04:25:40.695Z,100775.30
2019-02-28T04:28:06.504Z,100788.36
2019-02-28T04:33:19.593Z,100774.66
2019-02-28T04:35:45.368Z,100778.84
2019-02-28T04:38:11.174Z,100773.19
2019-02-28T04:40:36.943Z,100758.14
2019-02-28T04:43:02.743Z,100750.94
2019-02-28T04:45:28.524Z,100745.22
2019-02-28T04:48:14.706Z,100727.50
2019-02-28T04:50:40.495Z,100727.50
2019-02-28T04:53:06.314Z,100725.81
2019-02-28T04:55:34.224Z,100728.66
2019-02-28T04:57:59.789Z,100728.11
2019-02-28T05:00:25.565Z,100725.13
2019-02-28T05:02:54.876Z,100723.28
2019-02-28T05:05:19.058Z,100712.56
2019-02-28T05:07:44.852Z,100722.28
2019-02-28T05:10:10.746Z,100726.64
2019-02-28T05:12:39.921Z,100731.98
2019-02-28T05:18:17.927Z,100725.17
2019-02-28T05:20:45.985Z,100734.35
2019-02-28T05:23:11.415Z,100735.55
2019-02-28T05:25:37.209Z,100738.57
2019-02-28T05:28:02.989Z,100737.09
2019-02-28T05:30:28.773Z,100738.98
2019-02-28T05:32:54.555Z,100745.31
2019-02-28T05:35:25.483Z,100745.01
2019-02-28T05:37:48.576Z,100736.02
2019-02-28T05:40:15.726Z,100749.59
2019-02-28T05:42:41.511Z,100747.26
2019-02-28T05:48:20.900Z,100745.78
2019-02-28T05:50:46.959Z,100744.47
2019-02-28T05:53:14.375Z,100750.47
2019-02-28T05:55:40.177Z,100747.28
2019-02-28T05:58:05.951Z,100753.46
2019-02-28T06:00:33.340Z,100768.52
2019-02-28T06:02:59.446Z,100768.17
2019-02-28T06:05:25.241Z,100770.56
2019-02-28T06:07:51.030Z,100777.91
2019-02-28T06:10:16.819Z,100763.50
2019-02-28T06:12:43.839Z,100754.45
2019-02-28T06:15:51.971Z,100759.80
2019-02-28T06:18:17.750Z,100755.80
2019-02-28T06:20:43.562Z,100763.81
2019-02-28T06:23:10.150Z,100769.00
2019-02-28T06:25:37.047Z,100768.97
2019-02-28T06:28:02.823Z,100752.44
2019-02-28T06:30:28.617Z,100760.49
2019-02-28T06:32:57.801Z,100767.83
2019-02-28T06:35:22.101Z,100779.18
2019-02-28T06:37:47.889Z,100775.20
2019-02-28T06:40:55.346Z,100783.88
2019-02-28T06:43:21.142Z,100784.05
2019-02-28T06:45:46.943Z,100788.58
2019-02-28T06:48:12.724Z,100783.88
2019-02-28T06:50:58.413Z,100780.23
2019-02-28T06:53:24.200Z,100780.23
2019-02-28T06:55:50.006Z,100779.44
2019-02-28T06:58:15.788Z,100781.09
2019-02-28T07:00:44.165Z,100774.52
2019-02-28T07:03:09.271Z,100773.20
2019-02-28T07:05:35.052Z,100770.92
2019-02-28T07:08:00.867Z,100775.94
2019-02-28T07:10:26.626Z,100784.48
2019-02-28T07:12:52.422Z,100785.81
2019-02-28T07:15:23.759Z,100798.34
2019-02-28T07:17:47.491Z,100794.67
2019-02-28T07:20:55.264Z,100799.70
2019-02-28T07:23:22.261Z,100816.58
2019-02-28T07:25:48.757Z,100814.91
2019-02-28T07:28:14.554Z,100808.02
2019-02-28T07:30:40.329Z,100818.86
2019-02-28T07:33:10.452Z,100806.84
2019-02-28T07:35:36.765Z,100796.66
2019-02-28T07:38:01.540Z,100804.06
2019-02-28T07:40:27.315Z,100805.08
2019-02-28T07:42:53.113Z,100811.11
2019-02-28T07:45:18.890Z,100810.97
2019-02-28T07:47:44.684Z,100807.81
2019-02-28T07:53:37.533Z,100811.48
2019-02-28T07:56:03.777Z,100827.17
2019-02-28T07:58:33.489Z,100820.16
2019-02-28T08:00:58.714Z,100820.70
2019-02-28T08:03:24.496Z,100817.56
2019-02-28T08:05:50.272Z,100813.20
2019-02-28T08:08:16.091Z,100817.41
2019-02-28T08:10:41.859Z,100812.44
2019-02-28T08:13:07.659Z,100804.38
2019-02-28T08:15:33.437Z,100800.52
2019-02-28T08:17:59.238Z,100790.65
2019-02-28T08:20:25.123Z,100795.83
2019-02-28T08:22:50.899Z,100798.52
2019-02-28T08:25:16.685Z,100797.19
2019-02-28T08:27:42.482Z,100811.27
2019-02-28T08:31:07.923Z,100805.40
2019-02-28T08:33:33.715Z,100823.16
2019-02-28T08:35:59.491Z,100825.17
2019-02-28T08:38:25.286Z,100819.97
2019-02-28T08:40:51.690Z,100825.01
2019-02-28T08:45:52.162Z,100830.59
2019-02-28T08:48:17.948Z,100841.45
2019-02-28T08:50:43.733Z,100840.05
2019-02-28T08:53:12.443Z,100843.45
2019-02-28T08:55:38.405Z,100843.61
2019-02-28T08:58:06.603Z,100841.45
2019-02-28T09:00:33.368Z,100857.36
2019-02-28T09:03:01.004Z,100871.28
2019-02-28T09:05:30.092Z,100873.29
2019-02-28T09:07:55.685Z,100871.97
2019-02-28T09:11:03.155Z,100872.61
2019-02-28T09:13:28.953Z,100873.78
2019-02-28T09:15:54.733Z,100872.25
2019-02-28T09:18:20.543Z,100873.61
2019-02-28T09:20:46.315Z,100881.84
2019-02-28T09:23:12.101Z,100889.03
2019-02-28T09:25:37.889Z,100886.06
2019-02-28T09:31:17.744Z,100893.42
2019-02-28T09:33:43.538Z,100898.98
2019-02-28T09:36:09.320Z,100894.61
2019-02-28T09:38:35.107Z,100888.94
2019-02-28T09:41:20.814Z,100880.55
2019-02-28T09:43:46.607Z,100880.55
2019-02-28T09:46:15.311Z,100894.13
2019-02-28T09:48:40.080Z,100892.30
2019-02-28T09:51:05.875Z,100894.31
2019-02-28T09:53:31.649Z,100885.59
2019-02-28T09:55:57.443Z,100875.88
2019-02-28T09:58:26.261Z,100866.44
2019-02-28T10:00:51.041Z,100879.98
2019-02-28T10:03:18.559Z,100890.38
2019-02-28T10:05:44.520Z,100879.27
2019-02-28T10:08:10.317Z,100870.21
2019-02-28T10:10:36.109Z,100878.22
2019-02-28T10:13:01.902Z,100878.84
2019-02-28T10:15:27.695Z,100875.91
2019-02-28T10:17:53.474Z,100865.17
2019-02-28T10:20:39.542Z,100868.91
2019-02-28T10:23:25.215Z,100875.20
2019-02-28T10:26:10.914Z,100862.44
2019-02-28T10:28:36.701Z,100862.44
2019-02-28T10:31:02.502Z,100862.82
2019-02-28T10:33:28.280Z,100866.95
2019-02-28T10:35:54.073Z,100879.78
2019-02-28T10:38:19.856Z,100868.56
2019-02-28T10:40:45.654Z,100859.69
2019-02-28T10:43:12.176Z,100855.52
2019-02-28T10:45:59.014Z,100865.89
2019-02-28T10:48:24.799Z,100865.89
2019-02-28T10:50:50.704Z,100870.73
2019-02-28T10:53:16.499Z,100869.25
2019-02-28T10:58:40.489Z,100839.27
2019-02-28T11:01:47.963Z,100839.27
2019-02-28T11:04:13.756Z,100847.92
2019-02-28T11:06:39.655Z,100867.85
2019-02-28T11:09:05.448Z,100880.00
2019-02-28T11:11:31.257Z,100879.22
2019-02-28T11:13:57.032Z,100877.07
2019-02-28T11:16:23.666Z,100871.39
2019-02-28T11:18:50.526Z,100886.42
2019-02-28T11:23:50.282Z,100890.45
2019-02-28T11:26:17.435Z,100877.40
2019-02-28T11:28:43.234Z,100886.55
2019-02-28T11:31:11.094Z,100884.20
2019-02-28T11:33:39.522Z,100880.59
2019-02-28T11:36:04.534Z,100876.84
2019-02-28T11:38:30.314Z,100870.46
2019-02-28T11:40:57.496Z,100876.11
2019-02-28T11:43:43.693Z,100876.61
2019-02-28T11:46:09.490Z,100876.61
2019-02-28T11:48:35.273Z,100869.00
2019-02-28T11:51:01.062Z,100875.13
2019-02-28T11:53:26.849Z,100871.34
2019-02-28T11:55:53.642Z,100879.52
2019-02-28T11:58:20.472Z,100871.04
2019-02-28T12:00:46.517Z,100878.04
2019-02-28T12:03:12.323Z,100891.33
2019-02-28T12:05:38.107Z,100888.94
2019-02-28T12:08:09.357Z,100892.56
2019-02-28T12:10:31.801Z,100894.95
2019-02-28T12:12:57.594Z,100878.94
2019-02-28T12:15:43.262Z,100882.29
2019-02-28T12:18:09.091Z,100881.77
2019-02-28T12:20:34.915Z,100858.52
2019-02-28T12:23:00.720Z,100876.27
2019-02-28T12:26:08.182Z,100870.53
2019-02-28T12:28:35.294Z,100875.42
2019-02-28T12:31:01.755Z,100879.50
2019-02-28T12:33:27.643Z,100885.42
2019-02-28T12:35:54.786Z,100875.92
2019-02-28T12:38:21.141Z,100871.98
2019-02-28T12:40:49.312Z,100863.80
2019-02-28T12:43:14.638Z,100875.65
2019-02-28T12:46:00.832Z,100871.82
2019-02-28T12:48:27.218Z,100857.92
2019-02-28T12:50:54.324Z,100851.39
2019-02-28T12:53:24.128Z,100852.12
2019-02-28T12:55:47.814Z,100858.47
2019-02-28T12:58:13.591Z,100861.58
2019-02-28T13:01:21.088Z,100854.73
2019-02-28T13:03:46.889Z,100865.89
2019-02-28T13:06:12.670Z,100867.19
2019-02-28T13:08:38.713Z,100867.77
2019-02-28T13:11:06.268Z,100862.45
2019-02-28T13:13:32.175Z,100856.05
2019-02-28T13:15:57.957Z,100849.06
2019-02-28T13:18:23.763Z,100849.06
2019-02-28T13:20:49.542Z,100847.13
2019-02-28T13:23:17.176Z,100838.28
2019-02-28T13:25:43.034Z,100836.23
2019-02-28T13:28:08.811Z,100822.99
2019-02-28T13:30:34.693Z,100824.09
2019-02-28T13:33:00.533Z,100822.73
2019-02-28T13:35:47.637Z,100823.16
2019-02-28T13:38:17.716Z,100820.88
2019-02-28T13:41:01.428Z,100815.34
2019-02-28T13:43:27.304Z,100815.34
2019-02-28T13:45:55.862Z,100805.75
2019-02-28T13:48:26.145Z,100800.03
2019-02-28T13:50:48.477Z,100797.09
2019-02-28T13:53:18.272Z,100801.82
2019-02-28T13:55:41.959Z,100813.34
2019-02-28T13:58:07.847Z,100801.45
2019-02-28T14:01:19.456Z,100815.50
2019-02-28T14:04:02.894Z,100810.97
2019-02-28T14:06:28.684Z,100810.97
2019-02-28T14:08:54.476Z,100815.12
2019-02-28T14:11:20.287Z,100813.09
2019-02-28T14:13:46.062Z,100814.03
2019-02-28T14:16:11.864Z,100814.11
2019-02-28T14:18:37.642Z,100820.31
2019-02-28T14:21:04.086Z,100820.28
2019-02-28T14:23:31.217Z,100817.48
2019-02-28T14:25:57.017Z,100814.89
2019-02-28T14:28:22.797Z,100828.29
2019-02-28T14:30:48.697Z,100822.58
2019-02-28T14:33:16.202Z,100825.27
2019-02-28T14:35:42.204Z,100827.48
2019-02-28T14:38:07.988Z,100820.67
2019-02-28T14:40:33.788Z,100818.05
2019-02-28T14:42:59.565Z,100818.54
2019-02-28T14:48:39.906Z,100822.00
2019-02-28T14:51:06.962Z,100814.39
2019-02-28T14:53:32.749Z,100812.92
2019-02-28T14:55:58.544Z,100821.64
2019-02-28T14:58:24.327Z,100820.36
2019-02-28T15:00:50.124Z,100822.42
2019-02-28T15:03:16.005Z,100827.83
2019-02-28T15:08:55.346Z,100827.20
2019-02-28T15:11:21.158Z,100836.66
2019-02-28T15:13:46.921Z,100829.17
2019-02-28T15:16:12.721Z,100831.27
2019-02-28T15:18:38.506Z,100836.01
2019-02-28T15:21:04.498Z,100840.06
2019-02-28T15:23:34.226Z,100843.83
2019-02-28T15:25:59.692Z,100839.80
2019-02-28T15:28:25.476Z,100836.76
2019-02-28T15:30:51.257Z,100840.66
2019-02-28T15:33:17.062Z,100836.62
2019-02-28T15:35:42.831Z,100836.57
2019-02-28T15:38:09.984Z,100840.48
2019-02-28T15:40:58.807Z,100838.67
2019-02-28T15:43:23.884Z,100850.16
2019-02-28T15:45:49.668Z,100850.64
2019-02-28T15:48:15.451Z,100850.16
2019-02-28T15:50:41.241Z,100853.65
2019-02-28T15:53:26.930Z,100845.31
2019-02-28T15:55:52.809Z,100845.31
2019-02-28T15:58:18.607Z,100855.38
2019-02-28T16:00:44.377Z,100857.94
2019-02-28T16:03:10.172Z,100857.88
2019-02-28T16:05:42.473Z,100848.00
2019-02-28T16:08:08.805Z,100842.83
2019-02-28T16:11:13.236Z,100847.73
2019-02-28T16:13:39.038Z,100847.83
2019-02-28T16:16:04.886Z,100843.69
2019-02-28T16:18:30.675Z,100842.16
2019-02-28T16:20:56.499Z,100839.73
2019-02-28T16:23:23.632Z,100839.55
2019-02-28T16:25:50.250Z,100842.77
2019-02-28T16:28:17.721Z,100844.64
2019-02-28T16:30:43.506Z,100837.41
2019-02-28T16:33:09.302Z,100839.75
2019-02-28T16:35:35.186Z,100834.92
2019-02-28T16:38:00.981Z,100828.47
2019-02-28T16:41:08.428Z,100835.71
2019-02-28T16:43:34.220Z,100840.95
2019-02-28T16:46:00.013Z,100854.37
2019-02-28T16:48:25.807Z,100844.17
2019-02-28T16:50:53.810Z,100852.56
2019-02-28T16:53:19.378Z,100846.03
2019-02-28T16:55:45.153Z,100844.55
2019-02-28T16:58:10.957Z,100848.73
2019-02-28T17:00:39.615Z,100841.73
2019-02-28T17:03:07.373Z,100844.59
2019-02-28T17:05:32.141Z,100839.11
2019-02-28T17:07:57.931Z,100834.90
2019-02-28T17:10:44.250Z,100834.23
2019-02-28T17:13:30.094Z,100826.70
2019-02-28T17:16:15.774Z,100828.04
2019-02-28T17:21:17.951Z,100843.01
2019-02-28T17:23:42.843Z,100840.50
2019-02-28T17:26:08.616Z,100851.23
2019-02-28T17:28:54.448Z,100840.52
2019-02-28T17:34:07.648Z,100842.66
2019-02-28T17:36:33.438Z,100843.84
2019-02-28T17:38:59.229Z,100839.80
2019-02-28T17:41:25.008Z,100833.11
2019-02-28T17:44:33.971Z,100840.83
2019-02-28T17:51:08.913Z,100831.92
2019-02-28T17:54:17.233Z,100839.12
2019-02-28T17:57:23.825Z,100844.84
2019-02-28T18:00:51.791Z,100839.16
2019-02-28T18:04:16.618Z,100836.13
2019-02-28T18:22:26.331Z,100822.97
2019-02-28T18:25:31.907Z,100824.14
2019-02-28T18:28:39.362Z,100825.63
2019-02-28T18:31:46.834Z,100824.93
2019-02-28T18:34:12.820Z,100823.23
2019-02-28T18:36:40.159Z,100823.37
2019-02-28T18:39:48.370Z,100830.91
2019-02-28T18:42:16.113Z,100828.20
2019-02-28T18:44:43.359Z,100829.53
2019-02-28T18:47:09.151Z,100838.70
2019-02-28T18:49:34.925Z,100843.88
2019-02-28T18:52:00.721Z,100842.20
2019-02-28T18:54:26.508Z,100844.54
2019-02-28T18:56:52.297Z,100839.81
2019-02-28T19:02:25.271Z,100833.05
2019-02-28T19:04:51.058Z,100833.70
2019-02-28T19:07:16.852Z,100822.97
2019-02-28T19:09:42.657Z,100830.13
2019-02-28T19:12:08.451Z,100828.28
2019-02-28T19:14:34.750Z,100834.66
2019-02-28T19:17:00.548Z,100825.99
2019-02-28T19:19:26.329Z,100828.49
2019-02-28T19:21:52.130Z,100827.73
2019-02-28T19:24:17.911Z,100834.11
2019-02-28T19:26:43.740Z,100824.61
2019-02-28T19:29:09.510Z,100830.84
2019-02-28T19:31:35.314Z,100835.86
2019-02-28T19:34:01.106Z,100837.02
2019-02-28T19:36:26.887Z,100836.06
2019-02-28T19:38:52.693Z,100832.89
2019-02-28T19:41:18.468Z,100827.23
2019-02-28T19:43:44.271Z,100828.20
2019-02-28T19:46:10.058Z,100828.20
2019-02-28T19:48:35.850Z,100830.88
2019-02-28T19:51:01.632Z,100829.91
2019-02-28T19:53:47.330Z,100832.23
2019-02-28T19:56:13.117Z,100832.23
2019-02-28T19:58:38.911Z,100834.23
2019-02-28T20:01:04.736Z,100838.56
2019-02-28T20:03:30.551Z,100840.75
2019-02-28T20:05:56.300Z,100846.98
2019-02-28T20:08:22.119Z,100851.97
2019-02-28T20:10:47.911Z,100856.66
2019-02-28T20:13:13.721Z,100861.19
2019-02-28T20:18:26.832Z,100864.04
2019-02-28T20:20:52.616Z,100859.86
2019-02-28T20:23:18.417Z,100851.48
2019-02-28T20:25:44.198Z,100857.34
2019-02-28T20:28:10.013Z,100852.82
2019-02-28T20:30:35.810Z,100844.96
2019-02-28T20:33:01.591Z,100852.02
2019-02-28T20:35:27.375Z,100850.69
2019-02-28T20:37:53.166Z,100853.65
2019-02-28T20:41:00.644Z,100852.99
2019-02-28T20:43:26.447Z,100857.03
2019-02-28T20:45:52.236Z,100851.36
2019-02-28T20:51:05.556Z,100847.48
2019-02-28T20:53:31.389Z,100850.02
2019-02-28T20:55:57.169Z,100846.02
2019-02-28T20:58:42.856Z,100833.41
2019-02-28T21:01:08.760Z,100833.41
2019-02-28T21:03:34.557Z,100847.44
2019-02-28T21:06:00.369Z,100835.91
2019-02-28T21:08:26.172Z,100843.96
2019-02-28T21:10:51.966Z,100836.91
2019-02-28T21:13:17.750Z,100836.56
2019-02-28T21:15:43.545Z,100833.72
2019-02-28T21:18:09.322Z,100839.09
2019-02-28T21:20:55.030Z,100844.80
2019-02-28T21:23:20.814Z,100844.80
2019-02-28T21:25:46.614Z,100855.02
2019-02-28T21:28:12.401Z,100847.64
2019-02-28T21:30:38.181Z,100841.97
2019-02-28T21:33:03.969Z,100842.48
2019-02-28T21:38:43.774Z,100846.66
2019-02-28T21:41:09.570Z,100843.48
2019-02-28T21:43:35.347Z,100839.38
2019-02-28T21:46:01.137Z,100838.70
2019-02-28T21:48:26.910Z,100834.03
2019-02-28T21:50:52.705Z,100833.18
2019-02-28T21:53:18.485Z,100838.56
2019-02-28T21:56:04.185Z,100831.50
2019-02-28T21:58:31.238Z,100831.50
2019-02-28T22:00:57.664Z,100840.87
2019-02-28T22:03:23.486Z,100837.56
2019-02-28T22:05:49.254Z,100838.53
2019-02-28T22:08:15.048Z,100839.53
2019-02-28T22:10:40.841Z,100836.34
2019-02-28T22:13:06.617Z,100835.00
2019-02-28T22:15:32.437Z,100830.10
2019-02-28T22:17:58.216Z,100837.13
2019-02-28T22:20:24.021Z,100826.09
2019-02-28T22:22:49.799Z,100821.28
2019-02-28T22:25:57.269Z,100823.13
2019-02-28T22:28:23.859Z,100827.14
2019-02-28T22:33:47.807Z,100828.88
2019-02-28T22:38:51.744Z,100825.15
2019-02-28T22:41:17.535Z,100823.47
2019-02-28T22:43:43.314Z,100821.94
2019-02-28T22:46:09.103Z,100819.45
2019-02-28T22:48:34.888Z,100827.00
2019-02-28T22:51:00.695Z,100825.15
2019-02-28T22:53:26.459Z,100825.15
2019-02-28T22:55:52.301Z,100816.44
2019-02-28T22:58:18.076Z,100813.77
2019-02-28T23:01:43.528Z,100802.75
2019-02-28T23:04:09.311Z,100790.68
2019-02-28T23:06:35.105Z,100788.83
2019-02-28T23:09:00.898Z,100797.71
2019-02-28T23:11:26.694Z,100790.36
2019-02-28T23:13:52.481Z,100792.55
2019-02-28T23:16:18.273Z,100793.55
2019-02-28T23:18:44.059Z,100790.70
2019-02-28T23:21:09.876Z,100785.36
2019-02-28T23:23:35.665Z,100783.14
2019-02-28T23:26:43.125Z,100779.80
2019-02-28T23:29:08.915Z,100782.63
2019-02-28T23:32:14.478Z,100779.13
2019-02-28T23:34:40.262Z,100781.17
2019-02-28T23:37:06.057Z,100781.51
2019-02-28T23:39:31.836Z,100781.66
2019-02-28T23:41:57.633Z,100776.28
2019-02-28T23:44:23.410Z,100780.46
2019-02-28T23:46:49.232Z,100769.41
2019-02-28T23:49:15.018Z,100768.08
2019-02-28T23:51:40.795Z,100775.45
2019-02-28T23:54:06.588Z,100772.92
2019-02-28T23:56:32.368Z,100770.39
2019-02-28T23:58:58.177Z,100776.59
